LGKR

Details ICAO LGKR (CFU)
Name IOANNIS KAPODISTRIAS INTL
Region Greece
Timezone Europe/Athens (UTC+3.0)
Plans Departing 809
Arriving 1180
Stats Elevation 0 ft / 0 m (AMSL)
Location 39.602300° 19.912000°
Runways 1
Magnetic Variation 4.182° E
Sunrise 2018-10-16 04:52:13 UTC / 2018-10-16 07:52:13 Local
Sunset 2018-10-16 16:01:57 UTC / 2018-10-16 19:01:57 Local
Advertisement - Login to hide

Runways

ID Width Length Bearing (true/mag) Surface Threshold Overrun Markings Lighting
17 148 ft / 45 m 7,604 ft / 2,318 m 168.78° / 164.60° ASPHALT 1,342 ft / 409 m 0 ft / 0 m PREC-APP EDGE THRESHOLD ALSF-I
35 148 ft / 45 m 7,604 ft / 2,318 m 348.79° / 344.60° ASPHALT 0 ft / 0 m 0 ft / 0 m PREC-APP EDGE THRESHOLD SALS REIL-OMNI

Map

Weather


0- 5 10 15 20 25 30 35+ Temperature / °C

Clouds and Precipitation
Forecast for 2018-10-16 12:00 UTC. Updated 5 hours ago

Ground ~20,000 ft ~40,000 ft Winds

METAR

LGKR 161420Z 15004KT 9999 FEW025 25/13 Q1019 NOSIG

TAF

TAF LGKR 161100Z 1612/1712 VRB05KT 9999 FEW020 SCT070 BECMG 1700/1702 FEW020

Frequencies

Recorded 126.35 MHz ATIS
Tower 120.85 MHz KERKIRA TWR
Ground 121.70 MHz KERKIRA GND
Approach 122.10 MHz KERKIRA APP
Approach 122.35 MHz KERKIRA APP
Clearance 120.85 MHz KERKIRA CLD
Warning: Do not use this data for real-world aviation or navigation. No guarantee of current accuracy is given.